createdAt,value
2018-08-28T00:02:22.244Z,97.00
2018-08-28T00:04:50.724Z,97.00
2018-08-28T00:07:21.338Z,97.00
2018-08-28T00:09:49.677Z,97.00
2018-08-28T00:12:18.197Z,97.00
2018-08-28T00:14:46.564Z,97.00
2018-08-28T00:17:14.904Z,97.00
2018-08-28T00:19:43.402Z,97.00
2018-08-28T00:22:11.747Z,97.00
2018-08-28T00:24:41.356Z,97.00
2018-08-28T00:27:09.860Z,97.00
2018-08-28T00:29:38.248Z,97.00
2018-08-28T00:32:06.659Z,97.00
2018-08-28T00:34:35.040Z,97.00
2018-08-28T00:37:03.418Z,97.00
2018-08-28T00:39:31.754Z,97.00
2018-08-28T00:42:00.193Z,97.00
2018-08-28T00:44:28.532Z,97.00
2018-08-28T00:46:56.910Z,97.00
2018-08-28T00:49:31.815Z,97.00
2018-08-28T00:52:00.186Z,97.00
2018-08-28T00:54:28.516Z,97.00
2018-08-28T00:56:56.860Z,97.00
2018-08-28T00:59:25.296Z,97.00
2018-08-28T01:01:54.239Z,97.00
2018-08-28T01:04:22.945Z,97.00
2018-08-28T01:06:57.627Z,97.00
2018-08-28T01:09:25.986Z,97.00
2018-08-28T01:11:54.310Z,97.00
2018-08-28T01:14:22.748Z,97.00
2018-08-28T01:16:51.096Z,97.00
2018-08-28T01:19:19.488Z,97.00
2018-08-28T01:21:49.757Z,97.00
2018-08-28T01:24:18.506Z,97.00
2018-08-28T01:26:46.853Z,97.00
2018-08-28T01:29:15.253Z,97.00
2018-08-28T01:31:43.607Z,97.00
2018-08-28T01:34:11.978Z,97.00
2018-08-28T01:36:40.447Z,97.00
2018-08-28T01:39:09.211Z,97.00
2018-08-28T01:41:37.611Z,97.00
2018-08-28T01:44:06.016Z,97.00
2018-08-28T01:46:34.340Z,97.00
2018-08-28T01:49:02.818Z,97.00
2018-08-28T01:51:31.355Z,97.00
2018-08-28T01:53:59.712Z,97.00
2018-08-28T01:56:28.337Z,97.00
2018-08-28T01:58:56.702Z,97.00
2018-08-28T02:01:25.086Z,97.00
2018-08-28T02:03:53.435Z,97.00
2018-08-28T02:06:21.813Z,97.00
2018-08-28T02:08:50.197Z,97.00
2018-08-28T02:11:18.535Z,97.00
2018-08-28T02:13:46.912Z,97.00
2018-08-28T02:16:15.251Z,97.00
2018-08-28T02:18:43.756Z,97.00
2018-08-28T02:21:12.126Z,97.00
2018-08-28T02:23:40.455Z,97.00
2018-08-28T02:26:08.798Z,97.00
2018-08-28T02:28:37.176Z,97.00
2018-08-28T02:31:05.540Z,97.00
2018-08-28T02:33:34.251Z,97.00
2018-08-28T02:36:02.751Z,97.00
2018-08-28T02:38:31.188Z,97.00
2018-08-28T02:41:00.049Z,97.00
2018-08-28T02:43:28.424Z,97.00
2018-08-28T02:45:56.803Z,97.00
2018-08-28T02:48:25.254Z,97.00
2018-08-28T02:50:53.650Z,97.00
2018-08-28T02:53:22.187Z,97.00
2018-08-28T02:55:50.585Z,97.00
2018-08-28T02:58:18.975Z,97.00
2018-08-28T03:00:47.396Z,97.00
2018-08-28T03:03:15.845Z,97.00
2018-08-28T03:05:44.339Z,97.00
2018-08-28T03:08:12.832Z,97.00
2018-08-28T03:10:41.211Z,97.00
2018-08-28T03:13:10.178Z,97.00
2018-08-28T03:15:38.735Z,97.00
2018-08-28T03:18:07.084Z,97.00
2018-08-28T03:20:35.629Z,97.00
2018-08-28T03:23:04.284Z,97.00
2018-08-28T03:25:32.664Z,97.00
2018-08-28T03:28:01.018Z,97.00
2018-08-28T03:30:29.524Z,97.00
2018-08-28T03:32:58.291Z,97.00
2018-08-28T03:35:27.677Z,97.00
2018-08-28T03:37:56.124Z,97.00
2018-08-28T03:40:24.727Z,97.00
2018-08-28T03:42:53.422Z,97.00
2018-08-28T03:45:22.398Z,97.00
2018-08-28T03:47:50.780Z,97.00
2018-08-28T03:50:19.981Z,97.00
2018-08-28T03:52:48.440Z,97.00
2018-08-28T03:55:18.568Z,97.00
2018-08-28T03:57:47.641Z,97.00
2018-08-28T04:00:16.008Z,97.00
2018-08-28T04:02:44.410Z,97.00
2018-08-28T04:05:12.825Z,97.00
2018-08-28T04:07:41.285Z,97.00
2018-08-28T04:10:09.927Z,97.00
2018-08-28T04:12:38.675Z,97.00
2018-08-28T04:15:07.637Z,97.00
2018-08-28T04:17:41.236Z,97.00
2018-08-28T04:20:09.547Z,97.00
2018-08-28T04:22:39.364Z,97.00
2018-08-28T04:25:07.770Z,97.00
2018-08-28T04:27:36.197Z,97.00
2018-08-28T04:30:05.146Z,97.00
2018-08-28T04:32:34.353Z,97.00
2018-08-28T04:35:02.869Z,97.00
2018-08-28T04:37:31.342Z,97.00
2018-08-28T04:40:00.267Z,97.00
2018-08-28T04:42:28.845Z,97.00
2018-08-28T04:44:57.642Z,97.00
2018-08-28T04:47:26.250Z,97.00
2018-08-28T04:49:54.913Z,97.00
2018-08-28T04:52:23.280Z,97.00
2018-08-28T04:54:51.761Z,97.00
2018-08-28T04:57:20.148Z,97.00
2018-08-28T04:59:48.566Z,97.00
2018-08-28T05:02:17.055Z,97.00
2018-08-28T05:04:46.099Z,97.00
2018-08-28T05:07:14.538Z,97.00
2018-08-28T05:09:44.459Z,97.00
2018-08-28T05:12:12.824Z,97.00
2018-08-28T05:14:41.258Z,97.00
2018-08-28T05:17:09.606Z,97.00
2018-08-28T05:19:38.084Z,97.00
2018-08-28T05:22:06.576Z,97.00
2018-08-28T05:24:35.051Z,97.00
2018-08-28T05:27:03.393Z,97.00
2018-08-28T05:29:31.740Z,97.00
2018-08-28T05:32:00.199Z,97.00
2018-08-28T05:34:28.628Z,97.00
2018-08-28T05:36:57.151Z,97.00
2018-08-28T05:39:25.582Z,97.00
2018-08-28T05:41:54.035Z,97.00
2018-08-28T05:44:22.370Z,97.00
2018-08-28T05:46:50.725Z,97.00
2018-08-28T05:49:19.130Z,97.00
2018-08-28T05:51:49.296Z,97.00
2018-08-28T05:54:17.709Z,97.00
2018-08-28T05:56:46.168Z,97.00
2018-08-28T05:59:14.558Z,97.00
2018-08-28T06:01:43.074Z,97.00
2018-08-28T06:05:14.487Z,97.00
2018-08-28T06:07:42.927Z,97.00
2018-08-28T06:10:11.359Z,97.00
2018-08-28T06:12:39.854Z,97.00
2018-08-28T06:15:08.248Z,97.00
2018-08-28T06:17:36.591Z,97.00
2018-08-28T06:20:05.220Z,97.00
2018-08-28T06:22:33.641Z,97.00
2018-08-28T06:25:02.074Z,97.00
2018-08-28T06:27:30.504Z,97.00
2018-08-28T06:29:58.990Z,97.00
2018-08-28T06:32:27.352Z,97.00
2018-08-28T06:34:55.752Z,97.00
2018-08-28T06:37:24.273Z,97.00
2018-08-28T06:39:53.193Z,97.00
2018-08-28T06:42:21.530Z,97.00
2018-08-28T06:44:50.485Z,97.00
2018-08-28T06:47:18.995Z,97.00
2018-08-28T06:49:47.420Z,97.00
2018-08-28T06:52:15.770Z,97.00
2018-08-28T06:54:44.193Z,97.00
2018-08-28T06:57:12.737Z,97.00
2018-08-28T06:59:41.192Z,97.00
2018-08-28T07:02:09.701Z,97.00
2018-08-28T07:04:38.089Z,97.00
2018-08-28T07:07:06.607Z,97.00
2018-08-28T07:09:35.063Z,97.00
2018-08-28T07:12:03.412Z,97.00
2018-08-28T07:14:31.818Z,97.00
2018-08-28T07:17:00.250Z,97.00
2018-08-28T07:19:28.675Z,97.00
2018-08-28T07:21:57.080Z,97.00
2018-08-28T07:24:25.455Z,97.00
2018-08-28T07:26:53.927Z,97.00
2018-08-28T07:29:22.311Z,97.00
2018-08-28T07:31:50.778Z,97.00
2018-08-28T07:34:19.036Z,97.00
2018-08-28T07:36:47.419Z,97.00
2018-08-28T07:39:15.778Z,97.00
2018-08-28T07:41:44.772Z,97.00
2018-08-28T07:44:13.376Z,97.00
2018-08-28T07:46:41.714Z,97.00
2018-08-28T07:49:10.052Z,97.00
2018-08-28T07:51:38.451Z,97.00
2018-08-28T07:54:06.910Z,97.00
2018-08-28T07:56:35.783Z,97.00
2018-08-28T07:59:04.219Z,97.00
2018-08-28T08:01:32.685Z,97.00
2018-08-28T08:04:01.169Z,97.00
2018-08-28T08:06:29.565Z,97.00
2018-08-28T08:08:57.938Z,97.00
2018-08-28T08:11:26.304Z,97.00
2018-08-28T08:13:54.742Z,97.00
2018-08-28T08:16:23.100Z,97.00
2018-08-28T08:18:51.668Z,97.00
2018-08-28T08:21:19.967Z,96.80
2018-08-28T08:23:48.342Z,96.90
2018-08-28T08:26:16.692Z,96.80
2018-08-28T08:28:45.107Z,96.20
2018-08-28T08:31:13.500Z,95.80
2018-08-28T08:33:41.860Z,95.10
2018-08-28T08:36:10.209Z,94.90
2018-08-28T08:38:38.751Z,94.20
2018-08-28T08:41:07.409Z,93.80
2018-08-28T08:43:35.808Z,93.70
2018-08-28T08:46:04.218Z,94.10
2018-08-28T08:48:32.568Z,94.00
2018-08-28T08:51:00.910Z,93.50
2018-08-28T08:53:29.289Z,92.80
2018-08-28T08:55:57.681Z,93.00
2018-08-28T08:58:26.080Z,93.00
2018-08-28T09:00:54.539Z,92.90
2018-08-28T09:03:22.906Z,93.30
2018-08-28T09:05:51.706Z,92.50
2018-08-28T09:08:20.138Z,92.00
2018-08-28T09:10:48.551Z,91.60
2018-08-28T09:13:16.944Z,90.50
2018-08-28T09:15:45.301Z,89.80
2018-08-28T09:18:13.614Z,89.20
2018-08-28T09:20:41.975Z,89.00
2018-08-28T09:23:10.368Z,88.80
2018-08-28T09:25:38.751Z,88.90
2018-08-28T09:28:07.160Z,88.80
2018-08-28T09:30:35.528Z,88.30
2018-08-28T09:33:03.856Z,88.90
2018-08-28T09:35:32.229Z,88.50
2018-08-28T09:38:00.627Z,88.80
2018-08-28T09:40:28.957Z,87.80
2018-08-28T09:42:58.264Z,87.90
2018-08-28T09:45:26.665Z,86.90
2018-08-28T09:47:55.065Z,86.40
2018-08-28T09:50:26.808Z,85.80
2018-08-28T09:52:55.172Z,86.00
2018-08-28T09:55:23.744Z,85.20
2018-08-28T09:57:53.170Z,84.50
2018-08-28T10:00:28.488Z,84.40
2018-08-28T10:02:57.874Z,83.50
2018-08-28T10:05:26.293Z,84.30
2018-08-28T10:07:54.833Z,83.50
2018-08-28T10:10:23.189Z,84.20
2018-08-28T10:12:51.559Z,84.60
2018-08-28T10:15:20.013Z,82.50
2018-08-28T10:17:48.384Z,82.90
2018-08-28T10:20:16.730Z,82.40
2018-08-28T10:22:45.162Z,82.10
2018-08-28T10:25:13.474Z,82.20
2018-08-28T10:27:41.831Z,83.10
2018-08-28T10:30:10.234Z,83.20
2018-08-28T10:32:38.739Z,83.20
2018-08-28T10:35:07.153Z,83.90
2018-08-28T10:37:35.566Z,84.30
2018-08-28T10:40:03.974Z,85.00
2018-08-28T10:42:32.374Z,84.40
2018-08-28T10:45:00.776Z,84.70
2018-08-28T10:47:29.275Z,84.70
2018-08-28T10:49:57.667Z,84.70
2018-08-28T10:52:26.131Z,84.90
2018-08-28T10:54:54.538Z,84.10
2018-08-28T10:57:22.944Z,84.50
2018-08-28T10:59:51.788Z,84.90
2018-08-28T11:02:20.271Z,85.10
2018-08-28T11:04:48.665Z,85.40
2018-08-28T11:07:17.126Z,85.90
2018-08-28T11:09:45.501Z,85.70
2018-08-28T11:12:13.934Z,85.50
2018-08-28T11:14:42.418Z,85.70
2018-08-28T11:17:10.782Z,86.00
2018-08-28T11:19:39.831Z,85.60
2018-08-28T11:22:08.296Z,85.60
2018-08-28T11:24:36.757Z,85.60
2018-08-28T11:27:05.119Z,85.80
2018-08-28T11:29:33.667Z,85.20
2018-08-28T11:32:02.095Z,85.50
2018-08-28T11:34:30.451Z,86.20
2018-08-28T11:36:58.816Z,86.30
2018-08-28T11:39:27.177Z,86.80
2018-08-28T11:41:55.512Z,86.90
2018-08-28T11:44:23.934Z,87.20
2018-08-28T11:46:52.273Z,88.10
2018-08-28T11:49:20.648Z,88.10
2018-08-28T11:51:49.161Z,88.30
2018-08-28T11:54:17.527Z,88.30
2018-08-28T11:56:45.907Z,87.70
2018-08-28T11:59:14.271Z,86.80
2018-08-28T12:01:42.653Z,86.80
2018-08-28T12:04:11.018Z,86.70
2018-08-28T12:06:39.433Z,87.20
2018-08-28T12:09:08.597Z,88.00
2018-08-28T12:11:36.964Z,87.70
2018-08-28T12:14:05.409Z,87.80
2018-08-28T12:16:33.747Z,88.00
2018-08-28T12:19:02.572Z,87.90
2018-08-28T12:21:31.162Z,88.40
2018-08-28T12:23:59.470Z,88.20
2018-08-28T12:26:27.909Z,87.50
2018-08-28T12:28:56.273Z,88.30
2018-08-28T12:31:24.671Z,88.20
2018-08-28T12:33:53.174Z,88.20
2018-08-28T12:36:23.841Z,86.80
2018-08-28T12:38:52.378Z,87.00
2018-08-28T12:41:20.856Z,86.80
2018-08-28T12:43:49.285Z,86.20
2018-08-28T12:46:17.587Z,84.80
2018-08-28T12:48:45.925Z,84.10
2018-08-28T12:51:14.323Z,83.40
2018-08-28T12:53:42.670Z,81.70
2018-08-28T12:56:11.376Z,81.20
2018-08-28T12:58:40.241Z,79.30
2018-08-28T13:01:08.666Z,79.20
2018-08-28T13:03:37.208Z,79.40
2018-08-28T13:06:05.921Z,78.10
2018-08-28T13:08:34.349Z,77.40
2018-08-28T13:13:53.115Z,75.40
2018-08-28T13:16:21.614Z,75.40
2018-08-28T13:18:50.097Z,75.40
2018-08-28T13:21:18.617Z,75.40
2018-08-28T13:23:47.175Z,75.00
2018-08-28T13:26:15.529Z,75.20
2018-08-28T13:28:43.909Z,75.20
2018-08-28T13:31:12.366Z,74.10
2018-08-28T13:33:40.870Z,73.50
2018-08-28T13:36:09.400Z,73.30
2018-08-28T13:38:37.915Z,72.00
2018-08-28T13:41:06.333Z,71.20
2018-08-28T13:43:34.761Z,71.90
2018-08-28T13:46:03.214Z,71.80
2018-08-28T13:48:32.763Z,71.30
2018-08-28T13:51:01.227Z,70.20
2018-08-28T13:53:29.621Z,69.20
2018-08-28T13:56:04.704Z,68.40
2018-08-28T13:58:33.779Z,67.60
2018-08-28T14:01:02.211Z,67.70
2018-08-28T14:03:30.618Z,67.70
2018-08-28T14:05:59.353Z,68.80
2018-08-28T14:08:27.786Z,67.90
2018-08-28T14:10:56.193Z,67.90
2018-08-28T14:13:24.607Z,67.70
2018-08-28T14:15:52.923Z,67.10
2018-08-28T14:18:21.309Z,65.40
2018-08-28T14:20:49.769Z,64.50
2018-08-28T14:23:18.214Z,64.50
2018-08-28T14:25:47.199Z,64.20
2018-08-28T14:28:15.797Z,62.60
2018-08-28T14:30:44.176Z,62.80
2018-08-28T14:33:12.716Z,63.30
2018-08-28T14:35:41.209Z,62.90
2018-08-28T14:38:09.507Z,62.80
2018-08-28T14:40:37.832Z,63.40
2018-08-28T14:43:06.240Z,63.70
2018-08-28T14:45:34.699Z,64.50
2018-08-28T14:48:02.993Z,64.90
2018-08-28T14:50:31.545Z,65.00
2018-08-28T14:52:59.813Z,65.00
2018-08-28T14:55:28.156Z,64.30
2018-08-28T14:57:56.490Z,64.80
2018-08-28T15:00:24.885Z,64.70
2018-08-28T15:02:53.243Z,64.00
2018-08-28T15:05:21.699Z,62.80
2018-08-28T15:07:50.083Z,61.30
2018-08-28T15:10:22.178Z,61.80
2018-08-28T15:12:51.493Z,62.10
2018-08-28T15:15:19.921Z,61.60
2018-08-28T15:17:48.329Z,61.90
2018-08-28T15:20:16.807Z,61.30
2018-08-28T15:22:45.265Z,62.20
2018-08-28T15:25:13.667Z,62.50
2018-08-28T15:27:42.037Z,63.20
2018-08-28T15:30:10.521Z,63.20
2018-08-28T15:32:38.986Z,64.70
2018-08-28T15:35:07.639Z,66.50
2018-08-28T15:37:36.178Z,67.70
2018-08-28T15:40:04.806Z,67.60
2018-08-28T15:42:33.472Z,67.70
2018-08-28T15:45:02.013Z,67.70
2018-08-28T15:47:30.444Z,67.50
2018-08-28T15:49:58.928Z,67.40
2018-08-28T15:52:27.345Z,67.90
2018-08-28T15:54:55.741Z,68.60
2018-08-28T15:57:24.149Z,68.80
2018-08-28T15:59:52.513Z,69.40
2018-08-28T16:02:20.841Z,69.10
2018-08-28T16:04:49.320Z,69.20
2018-08-28T16:07:17.803Z,69.00
2018-08-28T16:09:46.243Z,67.90
2018-08-28T16:12:14.570Z,67.80
2018-08-28T16:14:43.052Z,67.00
2018-08-28T16:17:11.421Z,66.70
2018-08-28T16:19:39.826Z,66.70
2018-08-28T16:22:08.208Z,67.20
2018-08-28T16:24:36.628Z,67.80
2018-08-28T16:27:05.092Z,68.80
2018-08-28T16:29:39.880Z,70.30
2018-08-28T16:32:08.224Z,71.20
2018-08-28T16:34:36.595Z,71.40
2018-08-28T16:37:04.951Z,71.60
2018-08-28T16:39:33.340Z,71.90
2018-08-28T16:42:01.681Z,72.80
2018-08-28T16:44:30.059Z,73.00
2018-08-28T16:46:58.465Z,73.00
2018-08-28T16:49:26.912Z,73.20
2018-08-28T16:51:55.330Z,73.50
2018-08-28T16:54:23.730Z,74.00
2018-08-28T16:56:52.429Z,75.00
2018-08-28T16:59:20.854Z,74.90
2018-08-28T17:01:49.327Z,76.00
2018-08-28T17:04:17.786Z,75.90
2018-08-28T17:06:46.905Z,76.20
2018-08-28T17:09:15.351Z,76.60
2018-08-28T17:11:43.726Z,77.00
2018-08-28T17:14:12.311Z,77.20
2018-08-28T17:16:40.632Z,77.70
2018-08-28T17:19:09.068Z,78.00
2018-08-28T17:21:38.260Z,78.30
2018-08-28T17:24:06.630Z,78.70
2018-08-28T17:26:34.960Z,79.10
2018-08-28T17:29:03.281Z,79.50
2018-08-28T17:31:31.776Z,80.00
2018-08-28T17:34:00.115Z,80.10
2018-08-28T17:36:28.481Z,80.40
2018-08-28T17:38:56.850Z,80.60
2018-08-28T17:41:25.186Z,81.10
2018-08-28T17:43:53.900Z,81.60
2018-08-28T17:46:22.294Z,82.10
2018-08-28T17:48:51.112Z,82.50
2018-08-28T17:51:19.480Z,83.10
2018-08-28T17:53:47.826Z,83.40
2018-08-28T17:56:16.175Z,83.70
2018-08-28T17:58:44.646Z,84.80
2018-08-28T18:01:13.002Z,85.30
2018-08-28T18:03:41.427Z,84.80
2018-08-28T18:06:09.741Z,84.90
2018-08-28T18:08:38.070Z,85.20
2018-08-28T18:11:06.435Z,85.70
2018-08-28T18:13:34.770Z,86.70
2018-08-28T18:16:03.071Z,86.90
2018-08-28T18:18:31.443Z,86.80
2018-08-28T18:20:59.945Z,87.20
2018-08-28T18:23:28.308Z,87.40
2018-08-28T18:25:56.668Z,87.70
2018-08-28T18:28:25.034Z,88.10
2018-08-28T18:30:54.075Z,88.60
2018-08-28T18:33:22.429Z,88.80
2018-08-28T18:35:50.845Z,89.30
2018-08-28T18:38:19.310Z,89.30
2018-08-28T18:40:47.741Z,90.00
2018-08-28T18:43:16.188Z,89.90
2018-08-28T18:45:44.640Z,90.30
2018-08-28T18:48:12.948Z,90.80
2018-08-28T18:50:41.358Z,90.80
2018-08-28T18:53:09.689Z,90.90
2018-08-28T18:55:38.012Z,91.10
2018-08-28T18:58:06.705Z,91.00
2018-08-28T19:00:35.056Z,91.10
2018-08-28T19:03:03.576Z,91.20
2018-08-28T19:05:31.821Z,91.40
2018-08-28T19:08:00.247Z,91.60
2018-08-28T19:10:28.607Z,91.70
2018-08-28T19:12:57.797Z,92.30
2018-08-28T19:15:26.222Z,92.10
2018-08-28T19:17:54.693Z,92.70
2018-08-28T19:20:23.122Z,92.80
2018-08-28T19:22:51.564Z,93.20
2018-08-28T19:25:19.898Z,93.30
2018-08-28T19:27:48.281Z,93.70
2018-08-28T19:30:16.594Z,93.60
2018-08-28T19:32:44.936Z,93.60
2018-08-28T19:35:13.293Z,93.80
2018-08-28T19:37:41.630Z,94.10
2018-08-28T19:40:09.967Z,94.00
2018-08-28T19:42:38.343Z,94.00
2018-08-28T19:45:06.822Z,94.00
2018-08-28T19:47:35.151Z,94.10
2018-08-28T19:50:03.530Z,94.20
2018-08-28T19:52:31.926Z,94.50
2018-08-28T19:55:01.596Z,95.00
2018-08-28T19:57:30.800Z,94.90
2018-08-28T19:59:59.192Z,95.30
2018-08-28T20:02:27.567Z,95.20
2018-08-28T20:04:56.012Z,95.20
2018-08-28T20:07:24.412Z,95.40
2018-08-28T20:09:53.617Z,95.50
2018-08-28T20:12:22.013Z,95.70
2018-08-28T20:14:50.455Z,96.20
2018-08-28T20:17:20.184Z,96.70
2018-08-28T20:19:48.644Z,97.00
2018-08-28T20:22:17.244Z,97.00
2018-08-28T20:24:45.913Z,97.00
2018-08-28T20:27:14.293Z,97.00
2018-08-28T20:29:42.717Z,97.00
2018-08-28T20:32:11.180Z,97.00
2018-08-28T20:34:39.505Z,97.00
2018-08-28T20:37:07.915Z,97.00
2018-08-28T20:39:36.226Z,97.00
2018-08-28T20:42:05.104Z,97.00
2018-08-28T20:44:33.564Z,97.00
2018-08-28T20:47:02.184Z,97.00
2018-08-28T20:49:30.632Z,97.00
2018-08-28T20:51:59.269Z,97.00
2018-08-28T20:54:27.707Z,97.00
2018-08-28T20:56:56.064Z,97.00
2018-08-28T20:59:24.376Z,97.00
2018-08-28T21:01:52.747Z,97.00
2018-08-28T21:04:21.246Z,97.00
2018-08-28T21:06:49.691Z,97.00
2018-08-28T21:09:18.044Z,97.00
2018-08-28T21:11:46.430Z,97.00
2018-08-28T21:14:14.807Z,97.00
2018-08-28T21:16:43.202Z,97.00
2018-08-28T21:19:11.588Z,97.00
2018-08-28T21:21:40.046Z,97.00
2018-08-28T21:24:09.009Z,97.00
2018-08-28T21:26:37.592Z,97.00
2018-08-28T21:29:07.106Z,97.00
2018-08-28T21:31:35.456Z,97.00
2018-08-28T21:34:03.992Z,97.00
2018-08-28T21:36:32.404Z,97.00
2018-08-28T21:39:00.858Z,97.00
2018-08-28T21:41:29.367Z,97.00
2018-08-28T21:43:57.698Z,97.00
2018-08-28T21:46:26.130Z,97.00
2018-08-28T21:48:54.452Z,97.00
2018-08-28T21:51:22.804Z,97.00
2018-08-28T21:53:51.206Z,97.00
2018-08-28T21:56:19.596Z,97.00
2018-08-28T21:58:48.029Z,97.00
2018-08-28T22:01:17.264Z,97.00
2018-08-28T22:03:46.430Z,97.00
2018-08-28T22:06:20.123Z,97.00
2018-08-28T22:08:48.500Z,97.00
2018-08-28T22:11:16.817Z,97.00
2018-08-28T22:13:45.228Z,97.00
2018-08-28T22:16:13.650Z,97.00
2018-08-28T22:18:41.990Z,97.00
2018-08-28T22:21:10.394Z,97.00
2018-08-28T22:23:38.753Z,97.00
2018-08-28T22:26:07.146Z,97.00
2018-08-28T22:28:35.682Z,97.00
2018-08-28T22:31:04.207Z,97.00
2018-08-28T22:33:32.781Z,97.00
2018-08-28T22:36:01.364Z,97.00
2018-08-28T22:38:29.898Z,97.00
2018-08-28T22:40:58.359Z,97.00
2018-08-28T22:43:26.889Z,97.00
2018-08-28T22:45:55.300Z,97.00
2018-08-28T22:48:23.846Z,97.00
2018-08-28T22:50:52.273Z,97.00
2018-08-28T22:53:20.635Z,97.00
2018-08-28T22:55:49.023Z,97.00
2018-08-28T22:58:17.411Z,97.00
2018-08-28T23:00:45.772Z,97.00
2018-08-28T23:03:14.180Z,97.00
2018-08-28T23:05:42.585Z,97.00
2018-08-28T23:08:11.008Z,97.00
2018-08-28T23:10:39.384Z,97.00
2018-08-28T23:13:07.733Z,97.00
2018-08-28T23:15:36.102Z,97.00
2018-08-28T23:18:04.712Z,97.00
2018-08-28T23:20:33.053Z,97.00
2018-08-28T23:23:01.423Z,97.00
2018-08-28T23:25:29.763Z,97.00
2018-08-28T23:27:58.140Z,97.00
2018-08-28T23:30:26.553Z,97.00
2018-08-28T23:32:54.880Z,97.00
2018-08-28T23:35:23.304Z,97.00
2018-08-28T23:37:51.745Z,97.00
2018-08-28T23:40:20.149Z,97.00
2018-08-28T23:42:48.472Z,97.00
2018-08-28T23:45:16.875Z,97.00
2018-08-28T23:47:45.273Z,97.00
2018-08-28T23:50:13.783Z,97.00
2018-08-28T23:52:42.183Z,97.00
2018-08-28T23:55:10.586Z,97.00
2018-08-28T23:57:39.067Z,97.00
